• Join FlightAware (Why Join?)
  • Login
  • US Flag 
01:40PM EDT


 

Airport Tracker/Info


-or-


 

Live Flight TrackerFlight Track Log ✈ AMF1324 ✈ 18-Sep-2013 ✈ KBGM - KBUF

Flight Track Log - Related Links

Times and Time Zones

All times are in EDT time to prevent confusion due to time zone crossing. See the AMF1324 flight status page for this flight to view local times or setup timezone preferences in your user account.

Time Position Orientation Groundspeed Altitude Reporting Facility
EDT Latitude Longitude Course Direction KTS MPH feet Rate Location/Type
08:53AM 42.1636 -76.0108 276° West 150 173 4,800  Level New York Center
08:54AM 42.1689 -76.0814 276° West 144 166 6,500 1,680 Climbing New York Center
08:55AM 42.1739 -76.1572 275° West 172 198 8,200 1,620 Climbing New York Center
08:56AM 42.1872 -76.2283 284° West 187 215 9,800 1,560 Climbing New York Center
08:57AM 42.2136 -76.2919 299° West 192 221 11,400 780 Climbing New York Center
08:59AM 42.2719 -76.4239 301° West 210 242 12,000 180 Climbing Cleveland Center
09:00AM 42.3044 -76.5003 300° West 221 254 12,000  Level Cleveland Center
09:01AM 42.3425 -76.5789 303° West 234 269 12,000  Level Cleveland Center
09:02AM 42.3878 -76.6711 304° West 273 314 12,100  Climbing Cleveland Center
09:03AM 42.4231 -76.7464 302° West 250 288 12,000  Descending Cleveland Center
09:04AM 42.4606 -76.8408 298° West 242 278 12,100  Climbing Cleveland Center
09:05AM 42.4986 -76.9253 301° West 252 290 12,100  Level Cleveland Center
09:06AM 42.5325 -77.0069 299° West 251 289 12,100  Level Cleveland Center
09:07AM 42.5664 -77.0878 300° West 251 289 12,100 -60 Level Cleveland Center
09:08AM 42.6019 -77.1700 300° West 252 290 12,000 -60 Descending Cleveland Center
09:09AM 42.6369 -77.2506 301° West 248 285 12,000  Level Cleveland Center
09:10AM 42.6764 -77.3500 298° West 250 288 12,000 -120 Level Cleveland Center
09:11AM 42.6861 -77.3750 298° West 252 290 11,900 -780 Descending Cleveland Center
09:11AM 42.7172 -77.4347 305° West 263 303 11,200 -960 Descending Cleveland Center
09:12AM 42.7531 -77.5261 298° West 272 313 10,200 -1,080 Descending Cleveland Center
09:12AM 42.7514 -77.5303 241° Southwest 275 316 10,100 -240 Descending Cleveland Center
09:13AM 42.7897 -77.6128 302° West 266 306 10,000 -60 Descending Cleveland Center
09:14AM 42.8219 -77.6900 300° West 244 281 10,000  Level Cleveland Center
09:14AM 42.8222 -77.6931 277° West 246 283 10,000  Level Cleveland Center
09:15AM 42.8389 -77.7781 285° West 242 278 10,000  Level Cleveland Center
09:16AM 42.8444 -77.7806 342° North 255 293 10,000  Level Cleveland Center
09:17AM 42.8442 -77.8914 270° West 254 292 10,000  Level Cleveland Center
09:18AM 42.8553 -77.9861 279° West 250 288 10,000 -180 Level Cleveland Center
09:19AM 42.8592 -78.0839 273° West 247 284 9,700 -900 Descending Cleveland Center
09:20AM 42.8694 -78.1792 278° West 266 306 8,200 -1,440 Descending Cleveland Center
09:21AM 42.8889 -78.2825 284° West 274 315 6,800 -1,260 Descending Cleveland Center
09:22AM 42.9142 -78.3783 290° West 260 299 5,700 -1,080 Descending Cleveland Center
09:23AM 42.9436 -78.4683 294° West 251 289 4,600 -1,260 Descending Cleveland Center
09:24AM 42.9717 -78.5525 295° West 234 269 3,200 -1,020 Descending Cleveland Center
09:25AM 42.9919 -78.6225 292° West 215 247 2,500 -720 Descending Cleveland Center
09:26AM 42.9833 -78.6500 247° West 127 146 2,000 -720 Descending Buffalo TRACON
09:27AM 42.9667 -78.7000 246° West 124 143 1,300 -720 Descending Buffalo TRACON
09:29AM 42.9333 -78.7167 270° West  Level FlightAware Approximate
09:36AM 42.9404 -78.7306 270° West  Level Estimated